Athol, South Dakota
Current Conditions -  °F | °C
As of 1:53 AM on Thursday 29 Jan 2015 (Local Time) from KABR Reporting Station
Overcast Overcast  
Wind Chill: -7°   Ceiling: 1800
Heat Index:   Visibility: 10mi
Dew Point: -3°   Wind: 22mph
Humidity: 79%   Direction: 340°NNW
Pressure: 30.2"   Gusts: 31mph
Location:  45.027°N, 98.472°W
Report Text: KABR 290753Z AUTO 34019G27KT 10SM OVC018 00/M03 A3020 RMK AO2 PK WND 35029/0736 SLP240 T00001033
Loading
Personal Weather Stations






























Interactive Weather Map New forecast layout! Learn more

10-Day Weather Forecast

Advertisements
Track Severe Weather on mobile